createdAt,value
2023-05-14T00:00:22.421Z,45.36
2023-05-14T00:02:49.107Z,45.42
2023-05-14T00:05:15.770Z,45.41
2023-05-14T00:07:42.219Z,45.31
2023-05-14T00:10:08.981Z,45.39
2023-05-14T00:12:35.455Z,45.28
2023-05-14T00:15:02.393Z,45.48
2023-05-14T00:17:28.870Z,45.64
2023-05-14T00:19:55.873Z,45.24
2023-05-14T00:22:22.308Z,45.50
2023-05-14T00:24:48.778Z,45.62
2023-05-14T00:27:15.220Z,45.43
2023-05-14T00:29:41.624Z,45.52
2023-05-14T00:32:08.247Z,45.70
2023-05-14T00:34:35.008Z,45.68
2023-05-14T00:37:01.848Z,45.71
2023-05-14T00:39:28.267Z,45.80
2023-05-14T00:41:54.741Z,45.94
2023-05-14T00:44:21.172Z,45.85
2023-05-14T00:46:47.716Z,45.74
2023-05-14T00:49:14.799Z,46.00
2023-05-14T00:51:42.148Z,46.03
2023-05-14T00:54:09.240Z,46.04
2023-05-14T00:56:36.013Z,45.95
2023-05-14T00:59:02.608Z,45.97
2023-05-14T01:01:29.141Z,46.27
2023-05-14T01:03:57.867Z,46.11
2023-05-14T01:06:33.931Z,46.25
2023-05-14T01:09:28.187Z,46.06
2023-05-14T01:12:02.981Z,46.18
2023-05-14T01:14:36.889Z,46.10
2023-05-14T01:17:04.915Z,46.54
2023-05-14T01:19:41.805Z,46.33
2023-05-14T01:22:08.471Z,46.51
2023-05-14T01:24:34.970Z,46.45
2023-05-14T01:27:15.737Z,46.55
2023-05-14T01:29:49.620Z,46.71
2023-05-14T01:32:17.742Z,46.58
2023-05-14T01:34:47.202Z,46.55
2023-05-14T01:37:15.428Z,46.63
2023-05-14T01:39:42.537Z,46.51
2023-05-14T01:42:10.187Z,46.67
2023-05-14T01:44:36.638Z,46.67
2023-05-14T01:47:03.539Z,46.78
2023-05-14T01:49:30.015Z,46.87
2023-05-14T01:51:56.471Z,46.85
2023-05-14T01:54:23.148Z,46.57
2023-05-14T01:56:49.912Z,46.81
2023-05-14T01:59:16.959Z,47.03
2023-05-14T02:01:43.426Z,46.84
2023-05-14T02:04:10.250Z,46.98
2023-05-14T02:06:36.793Z,47.01
2023-05-14T02:09:04.826Z,46.92
2023-05-14T02:11:31.401Z,47.09
2023-05-14T02:13:57.882Z,47.01
2023-05-14T02:16:24.465Z,47.11
2023-05-14T02:18:51.510Z,47.08
2023-05-14T02:21:17.915Z,47.12
2023-05-14T02:23:44.332Z,47.33
2023-05-14T02:26:11.446Z,47.13
2023-05-14T02:28:38.056Z,47.29
2023-05-14T02:31:04.594Z,47.36
2023-05-14T02:33:31.194Z,47.51
2023-05-14T02:35:58.432Z,47.36
2023-05-14T02:38:26.347Z,47.42
2023-05-14T02:40:52.925Z,47.47
2023-05-14T02:43:19.422Z,47.55
2023-05-14T02:45:45.839Z,47.28
2023-05-14T02:48:12.396Z,47.31
2023-05-14T02:50:38.848Z,47.58
2023-05-14T02:53:05.382Z,47.56
2023-05-14T02:55:31.817Z,47.74
2023-05-14T02:57:58.428Z,47.40
2023-05-14T03:00:26.138Z,47.63
2023-05-14T03:02:53.163Z,47.84
2023-05-14T03:05:20.606Z,47.74
2023-05-14T03:07:46.992Z,47.81
2023-05-14T03:10:13.433Z,47.86
2023-05-14T03:12:39.893Z,47.96
2023-05-14T03:15:06.741Z,47.72
2023-05-14T03:17:33.648Z,47.93
2023-05-14T03:20:00.628Z,47.89
2023-05-14T03:22:27.143Z,47.86
2023-05-14T03:24:53.679Z,47.97
2023-05-14T03:27:20.715Z,48.03
2023-05-14T03:29:47.135Z,47.99
2023-05-14T03:32:13.604Z,48.07
2023-05-14T03:34:40.225Z,48.09
2023-05-14T03:37:07.015Z,48.16
2023-05-14T03:39:33.578Z,48.21
2023-05-14T03:42:00.113Z,48.23
2023-05-14T03:44:26.619Z,48.28
2023-05-14T03:46:53.262Z,48.29
2023-05-14T03:49:20.220Z,48.37
2023-05-14T03:51:46.641Z,48.22
2023-05-14T03:54:13.261Z,48.23
2023-05-14T03:56:39.705Z,48.43
2023-05-14T03:59:06.280Z,48.55
2023-05-14T04:01:32.794Z,48.37
2023-05-14T04:03:59.340Z,48.51
2023-05-14T04:06:26.402Z,48.68
2023-05-14T04:08:52.797Z,48.56
2023-05-14T04:11:19.301Z,48.67
2023-05-14T04:13:45.742Z,48.72
2023-05-14T04:16:12.205Z,48.62
2023-05-14T04:18:38.718Z,48.81
2023-05-14T04:21:05.231Z,48.87
2023-05-14T04:23:34.745Z,48.79
2023-05-14T04:26:01.185Z,48.88
2023-05-14T04:28:27.674Z,48.83
2023-05-14T04:30:54.228Z,48.96
2023-05-14T04:33:20.692Z,49.06
2023-05-14T04:35:47.180Z,49.00
2023-05-14T04:38:14.426Z,49.05
2023-05-14T04:40:44.190Z,49.18
2023-05-14T04:43:10.757Z,49.13
2023-05-14T04:45:37.252Z,49.21
2023-05-14T04:48:04.925Z,49.35
2023-05-14T04:50:31.483Z,49.29
2023-05-14T04:52:57.901Z,49.40
2023-05-14T04:55:24.412Z,49.49
2023-05-14T04:57:50.899Z,49.43
2023-05-14T05:00:17.899Z,49.44
2023-05-14T05:02:44.415Z,49.64
2023-05-14T05:05:10.881Z,49.61
2023-05-14T05:07:37.354Z,49.73
2023-05-14T05:10:04.292Z,49.77
2023-05-14T05:12:32.505Z,49.88
2023-05-14T05:14:59.226Z,50.02
2023-05-14T05:17:25.991Z,49.97
2023-05-14T05:19:52.751Z,49.98
2023-05-14T05:22:20.298Z,50.11
2023-05-14T05:24:47.989Z,50.28
2023-05-14T05:27:15.684Z,50.09
2023-05-14T05:29:42.096Z,50.19
2023-05-14T05:32:08.505Z,50.32
2023-05-14T05:34:35.887Z,50.21
2023-05-14T05:37:02.491Z,50.46
2023-05-14T05:39:34.593Z,50.29
2023-05-14T05:42:04.851Z,50.40
2023-05-14T05:44:31.432Z,50.65
2023-05-14T05:46:58.125Z,50.61
2023-05-14T05:49:24.682Z,50.60
2023-05-14T05:51:51.836Z,50.57
2023-05-14T05:54:18.586Z,50.63
2023-05-14T05:56:44.977Z,50.62
2023-05-14T05:59:11.425Z,50.71
2023-05-14T06:01:38.081Z,50.64
2023-05-14T06:04:06.234Z,50.53
2023-05-14T06:06:33.011Z,50.48
2023-05-14T06:11:49.077Z,50.38
2023-05-14T06:14:15.516Z,50.45
2023-05-14T06:16:41.983Z,50.53
2023-05-14T06:19:08.498Z,50.75
2023-05-14T06:21:35.224Z,50.85
2023-05-14T06:24:01.652Z,50.72
2023-05-14T06:26:28.058Z,50.83
2023-05-14T06:28:54.618Z,51.03
2023-05-14T06:31:21.064Z,50.94
2023-05-14T06:33:47.495Z,51.02
2023-05-14T06:36:13.905Z,51.26
2023-05-14T06:38:40.400Z,51.03
2023-05-14T06:41:06.882Z,51.18
2023-05-14T06:43:33.328Z,51.49
2023-05-14T06:46:00.180Z,51.64
2023-05-14T06:48:27.886Z,51.77
2023-05-14T06:50:54.464Z,51.59
2023-05-14T06:53:20.851Z,51.57
2023-05-14T06:55:48.159Z,51.43
2023-05-14T06:58:14.601Z,51.78
2023-05-14T07:00:41.165Z,51.70
2023-05-14T07:03:07.649Z,51.73
2023-05-14T07:05:34.105Z,51.97
2023-05-14T07:08:00.605Z,52.01
2023-05-14T07:10:27.165Z,52.04
2023-05-14T07:12:53.627Z,52.25
2023-05-14T07:15:20.484Z,52.26
2023-05-14T07:17:47.009Z,52.44
2023-05-14T07:20:13.480Z,52.53
2023-05-14T07:22:39.915Z,52.40
2023-05-14T07:25:06.547Z,52.61
2023-05-14T07:27:32.981Z,52.48
2023-05-14T07:29:59.401Z,52.56
2023-05-14T07:32:25.954Z,52.47
2023-05-14T07:34:52.422Z,52.30
2023-05-14T07:37:18.944Z,52.13
2023-05-14T07:39:45.529Z,52.03
2023-05-14T07:42:19.381Z,51.82
2023-05-14T07:44:51.918Z,51.66
2023-05-14T07:47:18.445Z,51.41
2023-05-14T07:49:44.974Z,51.42
2023-05-14T07:52:11.429Z,51.44
2023-05-14T07:54:37.914Z,51.22
2023-05-14T07:57:04.640Z,51.18
2023-05-14T07:59:31.230Z,50.83
2023-05-14T08:01:57.797Z,50.84
2023-05-14T08:04:24.366Z,50.79
2023-05-14T08:06:51.273Z,50.69
2023-05-14T08:09:17.755Z,50.55
2023-05-14T08:11:44.244Z,50.71
2023-05-14T08:14:10.674Z,50.67
2023-05-14T08:16:37.164Z,50.40
2023-05-14T08:19:03.616Z,50.53
2023-05-14T08:21:30.165Z,50.31
2023-05-14T08:23:56.548Z,50.22
2023-05-14T08:26:23.019Z,50.15
2023-05-14T08:28:49.454Z,50.13
2023-05-14T08:31:16.076Z,50.12
2023-05-14T08:33:42.494Z,49.79
2023-05-14T08:36:09.222Z,49.72
2023-05-14T08:38:35.657Z,49.53
2023-05-14T08:41:05.444Z,49.42
2023-05-14T08:44:09.261Z,49.42
2023-05-14T08:46:38.142Z,49.37
2023-05-14T08:49:36.710Z,49.54
2023-05-14T08:52:03.736Z,49.44
2023-05-14T08:54:32.421Z,49.56
2023-05-14T08:56:59.527Z,49.12
2023-05-14T08:59:26.338Z,49.29
2023-05-14T09:01:54.729Z,48.62
2023-05-14T09:04:23.329Z,48.72
2023-05-14T09:06:51.745Z,48.33
2023-05-14T09:09:19.021Z,48.34
2023-05-14T09:11:52.753Z,48.14
2023-05-14T09:14:19.522Z,48.05
2023-05-14T09:16:48.324Z,47.82
2023-05-14T09:19:16.011Z,47.88
2023-05-14T09:21:45.243Z,48.00
2023-05-14T09:24:23.026Z,47.83
2023-05-14T09:26:58.743Z,47.85
2023-05-14T09:29:26.402Z,47.87
2023-05-14T09:31:54.676Z,47.73
2023-05-14T09:34:29.287Z,47.59
2023-05-14T09:37:03.315Z,47.23
2023-05-14T09:39:30.766Z,47.41
2023-05-14T09:41:57.657Z,47.10
2023-05-14T09:44:25.015Z,47.50
2023-05-14T09:46:52.524Z,47.17
2023-05-14T09:49:19.496Z,47.38
2023-05-14T09:51:46.298Z,47.11
2023-05-14T09:54:12.783Z,47.51
2023-05-14T09:56:42.318Z,47.99
2023-05-14T09:59:08.773Z,47.74
2023-05-14T10:01:36.461Z,48.39
2023-05-14T10:04:06.291Z,48.74
2023-05-14T10:06:40.167Z,47.44
2023-05-14T10:09:13.752Z,47.64
2023-05-14T10:11:44.191Z,47.21
2023-05-14T10:14:18.815Z,47.22
2023-05-14T10:16:51.395Z,47.34
2023-05-14T10:19:22.859Z,47.37
2023-05-14T10:21:55.659Z,47.42
2023-05-14T10:24:23.440Z,47.34
2023-05-14T10:26:50.054Z,46.08
2023-05-14T10:29:16.487Z,46.22
2023-05-14T10:31:55.583Z,45.92
2023-05-14T10:34:32.548Z,45.34
2023-05-14T10:37:01.052Z,45.63
2023-05-14T10:39:45.450Z,45.60
2023-05-14T10:42:13.922Z,45.18
2023-05-14T10:44:47.056Z,45.54
2023-05-14T10:47:15.463Z,45.11
2023-05-14T10:49:44.054Z,45.31
2023-05-14T10:52:12.287Z,44.75
2023-05-14T10:54:39.077Z,44.66
2023-05-14T10:57:11.172Z,44.83
2023-05-14T10:59:41.905Z,44.99
2023-05-14T11:02:20.529Z,44.44
2023-05-14T11:07:29.011Z,44.95
2023-05-14T11:10:01.596Z,44.86
2023-05-14T11:12:29.095Z,44.42
2023-05-14T11:15:00.683Z,44.24
2023-05-14T11:17:28.091Z,43.86
2023-05-14T11:19:55.911Z,43.38
2023-05-14T11:22:22.585Z,43.64
2023-05-14T11:24:49.441Z,43.95
2023-05-14T11:27:16.998Z,43.38
2023-05-14T11:29:46.168Z,43.25
2023-05-14T11:32:13.468Z,43.61
2023-05-14T11:34:40.682Z,43.39
2023-05-14T11:37:08.683Z,43.60
2023-05-14T11:39:39.922Z,43.70
2023-05-14T11:42:16.838Z,43.12
2023-05-14T11:44:46.565Z,44.02
2023-05-14T11:47:13.069Z,43.00
2023-05-14T11:49:39.535Z,42.98
2023-05-14T11:52:07.387Z,43.21
2023-05-14T11:54:34.646Z,43.51
2023-05-14T11:57:10.118Z,43.52
2023-05-14T11:59:37.645Z,43.21
2023-05-14T12:02:05.451Z,43.26
2023-05-14T12:04:32.468Z,43.63
2023-05-14T12:07:00.307Z,43.25
2023-05-14T12:09:26.853Z,43.41
2023-05-14T12:11:53.319Z,43.22
2023-05-14T12:14:24.346Z,44.10
2023-05-14T12:16:51.516Z,43.92
2023-05-14T12:19:20.119Z,44.45
2023-05-14T12:21:50.929Z,44.51
2023-05-14T12:24:19.885Z,44.49
2023-05-14T12:26:50.840Z,44.96
2023-05-14T12:29:17.383Z,44.85
2023-05-14T12:31:48.250Z,45.37
2023-05-14T12:34:15.390Z,45.35
2023-05-14T12:36:42.153Z,45.74
2023-05-14T12:39:09.635Z,45.49
2023-05-14T12:41:36.570Z,45.76
2023-05-14T12:44:06.129Z,45.77
2023-05-14T12:46:34.047Z,45.93
2023-05-14T12:49:00.999Z,46.11
2023-05-14T12:51:27.532Z,45.99
2023-05-14T12:53:54.290Z,46.25
2023-05-14T12:56:21.398Z,46.48
2023-05-14T12:58:47.946Z,46.56
2023-05-14T13:01:14.434Z,46.57
2023-05-14T13:03:41.464Z,46.64
2023-05-14T13:06:07.989Z,46.39
2023-05-14T13:08:35.261Z,46.18
2023-05-14T13:11:01.755Z,46.46
2023-05-14T13:13:28.299Z,45.92
2023-05-14T13:15:55.502Z,45.79
2023-05-14T13:18:21.946Z,45.72
2023-05-14T13:20:48.456Z,45.85
2023-05-14T13:23:14.968Z,45.96
2023-05-14T13:25:41.569Z,45.65
2023-05-14T13:28:08.615Z,45.58
2023-05-14T13:30:35.050Z,45.63
2023-05-14T13:33:01.539Z,45.70
2023-05-14T13:35:28.042Z,45.47
2023-05-14T13:37:56.025Z,44.75
2023-05-14T13:40:22.623Z,44.47
2023-05-14T13:42:49.153Z,44.62
2023-05-14T13:45:15.643Z,44.79
2023-05-14T13:47:42.286Z,44.77
2023-05-14T13:50:08.956Z,45.01
2023-05-14T13:52:35.525Z,44.65
2023-05-14T13:55:01.973Z,44.40
2023-05-14T13:57:28.391Z,44.14
2023-05-14T13:59:54.844Z,44.47
2023-05-14T14:02:21.385Z,44.27
2023-05-14T14:04:49.279Z,44.15
2023-05-14T14:07:15.789Z,43.94
2023-05-14T14:09:42.195Z,44.17
2023-05-14T14:12:09.190Z,44.12
2023-05-14T14:14:35.645Z,43.85
2023-05-14T14:17:02.075Z,43.73
2023-05-14T14:19:28.482Z,44.02
2023-05-14T14:21:54.960Z,43.87
2023-05-14T14:24:21.366Z,43.91
2023-05-14T14:26:47.801Z,43.86
2023-05-14T14:29:14.305Z,43.65
2023-05-14T14:31:40.794Z,43.79
2023-05-14T14:34:07.280Z,44.11
2023-05-14T14:36:33.698Z,43.78
2023-05-14T14:39:00.134Z,43.07
2023-05-14T14:41:27.320Z,43.92
2023-05-14T14:43:53.862Z,43.28
2023-05-14T14:46:20.337Z,43.06
2023-05-14T14:48:46.825Z,42.96
2023-05-14T14:51:13.486Z,43.41
2023-05-14T14:53:40.423Z,43.21
2023-05-14T14:56:07.119Z,43.04
2023-05-14T14:58:33.612Z,42.37
2023-05-14T15:01:01.232Z,42.91
2023-05-14T15:03:28.046Z,42.85
2023-05-14T15:05:54.626Z,42.43
2023-05-14T15:08:26.272Z,42.65
2023-05-14T15:10:52.872Z,42.30
2023-05-14T15:13:19.544Z,43.26
2023-05-14T15:15:46.024Z,42.56
2023-05-14T15:18:12.633Z,42.52
2023-05-14T15:20:39.201Z,41.94
2023-05-14T15:23:06.057Z,42.31
2023-05-14T15:25:32.568Z,41.88
2023-05-14T15:27:59.002Z,42.29
2023-05-14T15:30:25.399Z,41.91
2023-05-14T15:32:52.217Z,41.59
2023-05-14T15:35:19.215Z,41.75
2023-05-14T15:37:45.651Z,41.75
2023-05-14T15:40:12.514Z,41.81
2023-05-14T15:42:43.617Z,41.36
2023-05-14T15:45:12.215Z,42.46
2023-05-14T15:47:38.863Z,42.47
2023-05-14T15:50:05.919Z,41.92
2023-05-14T15:52:32.538Z,42.30
2023-05-14T15:54:59.544Z,42.15
2023-05-14T15:57:26.215Z,42.09
2023-05-14T15:59:52.785Z,41.83
2023-05-14T16:02:19.238Z,42.45
2023-05-14T16:04:45.684Z,42.13
2023-05-14T16:07:12.326Z,41.58
2023-05-14T16:09:39.317Z,41.26
2023-05-14T16:12:06.477Z,40.83
2023-05-14T16:14:34.225Z,40.71
2023-05-14T16:17:02.006Z,40.50
2023-05-14T16:19:28.520Z,41.10
2023-05-14T16:21:55.050Z,41.36
2023-05-14T16:24:21.598Z,40.92
2023-05-14T16:26:48.162Z,41.22
2023-05-14T16:29:14.570Z,41.42
2023-05-14T16:31:41.114Z,41.47
2023-05-14T16:34:07.559Z,41.37
2023-05-14T16:36:34.033Z,41.84
2023-05-14T16:41:29.957Z,41.15
2023-05-14T16:43:56.487Z,40.32
2023-05-14T16:46:23.036Z,40.82
2023-05-14T16:48:50.598Z,40.62
2023-05-14T16:51:17.024Z,40.59
2023-05-14T16:53:43.428Z,40.83
2023-05-14T16:56:09.877Z,41.05
2023-05-14T16:58:36.363Z,41.04
2023-05-14T17:01:02.911Z,41.64
2023-05-14T17:03:29.377Z,41.51
2023-05-14T17:05:55.840Z,41.35
2023-05-14T17:08:22.281Z,42.39
2023-05-14T17:10:48.685Z,41.77
2023-05-14T17:13:15.134Z,42.15
2023-05-14T17:15:42.431Z,41.92
2023-05-14T17:18:08.999Z,41.81
2023-05-14T17:20:35.511Z,41.89
2023-05-14T17:23:01.926Z,42.40
2023-05-14T17:25:28.323Z,42.08
2023-05-14T17:27:55.049Z,42.24
2023-05-14T17:30:21.479Z,42.32
2023-05-14T17:32:50.855Z,42.38
2023-05-14T17:35:17.528Z,42.56
2023-05-14T17:37:44.084Z,42.49
2023-05-14T17:40:11.074Z,42.67
2023-05-14T17:42:37.507Z,42.63
2023-05-14T17:45:04.282Z,42.77
2023-05-14T17:47:31.437Z,42.93
2023-05-14T17:49:58.208Z,42.97
2023-05-14T17:52:24.724Z,43.20
2023-05-14T17:54:51.272Z,43.25
2023-05-14T18:14:45.703Z,41.22
2023-05-14T18:17:12.376Z,41.68
2023-05-14T18:19:40.824Z,42.27
2023-05-14T18:22:07.275Z,41.88
2023-05-14T18:24:33.688Z,42.45
2023-05-14T18:27:00.496Z,42.87
2023-05-14T18:29:26.912Z,43.07
2023-05-14T18:31:53.342Z,42.84
2023-05-14T18:34:19.863Z,42.80
2023-05-14T18:36:46.354Z,42.37
2023-05-14T18:39:12.784Z,42.15
2023-05-14T18:41:39.230Z,41.97
2023-05-14T18:44:05.658Z,42.38
2023-05-14T18:46:32.189Z,42.17
2023-05-14T18:48:58.728Z,42.54
2023-05-14T18:51:25.342Z,42.33
2023-05-14T18:53:51.908Z,42.14
2023-05-14T18:56:18.338Z,42.45
2023-05-14T18:58:44.758Z,42.52
2023-05-14T19:01:11.226Z,42.19
2023-05-14T19:03:37.766Z,42.28
2023-05-14T19:06:04.381Z,43.03
2023-05-14T19:08:30.817Z,42.95
2023-05-14T19:10:57.291Z,42.29
2023-05-14T19:13:24.074Z,42.80
2023-05-14T19:15:50.694Z,42.02
2023-05-14T19:18:17.667Z,42.24
2023-05-14T19:20:46.176Z,41.98
2023-05-14T19:23:12.934Z,42.14
2023-05-14T19:25:39.476Z,42.18
2023-05-14T19:28:06.472Z,42.28
2023-05-14T19:30:32.947Z,42.22
2023-05-14T19:32:59.591Z,42.43
2023-05-14T19:35:26.652Z,42.43
2023-05-14T19:37:53.228Z,42.42
2023-05-14T19:40:19.693Z,42.51
2023-05-14T19:42:46.509Z,42.33
2023-05-14T19:45:13.680Z,43.08
2023-05-14T19:47:40.300Z,42.28
2023-05-14T19:50:08.626Z,42.46
2023-05-14T19:52:35.158Z,42.80
2023-05-14T19:55:01.603Z,42.70
2023-05-14T19:57:28.065Z,42.81
2023-05-14T19:59:54.522Z,42.99
2023-05-14T20:02:21.601Z,43.02
2023-05-14T20:04:48.088Z,43.06
2023-05-14T20:07:15.589Z,43.02
2023-05-14T20:09:42.121Z,43.22
2023-05-14T20:12:09.118Z,42.94
2023-05-14T20:14:35.869Z,43.05
2023-05-14T20:17:02.368Z,43.39
2023-05-14T20:19:28.814Z,43.31
2023-05-14T20:21:56.201Z,43.29
2023-05-14T20:24:22.658Z,43.18
2023-05-14T20:26:49.133Z,43.62
2023-05-14T20:29:15.605Z,43.75
2023-05-14T20:31:42.079Z,43.45
2023-05-14T20:34:08.504Z,43.74
2023-05-14T20:36:35.776Z,43.86
2023-05-14T20:39:02.250Z,43.70
2023-05-14T20:41:28.712Z,43.74
2023-05-14T20:43:55.107Z,43.67
2023-05-14T20:46:21.634Z,43.87
2023-05-14T20:48:48.625Z,43.95
2023-05-14T20:51:15.083Z,44.11
2023-05-14T20:53:41.888Z,43.95
2023-05-14T20:56:08.382Z,44.11
2023-05-14T20:58:35.369Z,43.86
2023-05-14T21:01:02.153Z,44.12
2023-05-14T21:03:28.669Z,44.14
2023-05-14T21:05:56.735Z,44.21
2023-05-14T21:08:23.225Z,44.07
2023-05-14T21:10:49.926Z,44.18
2023-05-14T21:13:16.375Z,44.26
2023-05-14T21:15:42.829Z,44.46
2023-05-14T21:18:09.400Z,44.05
2023-05-14T21:20:35.933Z,44.19
2023-05-14T21:23:02.416Z,44.43
2023-05-14T21:25:28.856Z,44.23
2023-05-14T21:27:55.350Z,44.44
2023-05-14T21:30:21.788Z,44.44
2023-05-14T21:32:48.275Z,44.56
2023-05-14T21:35:14.787Z,44.62
2023-05-14T21:37:41.299Z,44.71
2023-05-14T21:40:12.279Z,44.43
2023-05-14T21:42:39.642Z,44.63
2023-05-14T21:45:06.643Z,44.70
2023-05-14T21:47:33.410Z,44.53
2023-05-14T21:50:00.185Z,44.84
2023-05-14T21:52:26.926Z,44.75
2023-05-14T21:54:53.345Z,44.58
2023-05-14T21:57:20.091Z,44.74
2023-05-14T21:59:46.541Z,44.85
2023-05-14T22:02:12.957Z,44.93
2023-05-14T22:04:39.466Z,44.70
2023-05-14T22:07:05.942Z,44.76
2023-05-14T22:09:32.383Z,44.78
2023-05-14T22:11:59.092Z,44.94
2023-05-14T22:14:27.172Z,44.73
2023-05-14T22:16:53.689Z,44.94
2023-05-14T22:19:20.308Z,45.05
2023-05-14T22:21:46.792Z,45.07
2023-05-14T22:24:13.424Z,45.13
2023-05-14T22:26:40.262Z,44.91
2023-05-14T22:29:06.720Z,44.89
2023-05-14T22:31:33.166Z,45.00
2023-05-14T22:33:59.636Z,45.28
2023-05-14T22:36:26.117Z,45.32
2023-05-14T22:38:52.594Z,45.38
2023-05-14T22:41:20.128Z,45.25
2023-05-14T22:43:48.582Z,45.43
2023-05-14T22:46:15.866Z,45.41
2023-05-14T22:48:42.371Z,45.22
2023-05-14T22:51:08.819Z,45.21
2023-05-14T22:53:35.222Z,45.30
2023-05-14T22:56:01.932Z,45.59
2023-05-14T22:58:28.363Z,45.46
2023-05-14T23:00:54.785Z,45.53
2023-05-14T23:03:21.212Z,45.41
2023-05-14T23:05:47.623Z,45.73
2023-05-14T23:08:14.513Z,45.55
2023-05-14T23:10:40.967Z,45.49
2023-05-14T23:13:07.410Z,45.40
2023-05-14T23:15:33.830Z,45.60
2023-05-14T23:18:00.542Z,45.83
2023-05-14T23:20:27.056Z,45.51
2023-05-14T23:22:54.031Z,45.96
2023-05-14T23:25:20.526Z,45.91
2023-05-14T23:27:46.974Z,45.87
2023-05-14T23:30:13.553Z,45.75
2023-05-14T23:32:40.013Z,45.86
2023-05-14T23:35:06.658Z,45.80
2023-05-14T23:37:33.664Z,46.10
2023-05-14T23:40:01.649Z,45.88
2023-05-14T23:42:28.151Z,46.10
2023-05-14T23:44:54.582Z,46.10
2023-05-14T23:47:21.016Z,46.13
2023-05-14T23:49:47.458Z,46.07
2023-05-14T23:52:13.893Z,46.34
2023-05-14T23:54:40.394Z,46.04
2023-05-14T23:57:07.017Z,46.36
2023-05-14T23:59:33.515Z,46.28
